Marstein — LAQN — position and weather

sailwx.info

Track history (hours):
 
Tides and Currents Weather Stations Pressure Air Temp Water Temp Dewpoint Dewpoint Depression Visibility Wind Speed Wind Dir Waves Ship Positions

Marstein

Last reported at 2017-Sep-25 08:01 UTC. Time now 2017-Sep-25 08:17 UTC.
Position N 60°08' E 005°15'.

Length 87 m; draft 4.7 m.

Type: Passenger vessel. MMSI: 257317400.

Date/timePositionNaut miles runAvg speedWind from/ knotsBaromVisibWave heightAir tempDewpointWater temp
2017-Sep-25 08:01N 60°08' E 005°15'510.1
2017-Sep-25 07:30N 60°13' E 005°17'611.8
2017-Sep-25 07:00N 60°08' E 005°13'2 4.5
2017-Sep-25 06:30N 60°10' E 005°16'4 7.5
2017-Sep-25 06:00N 60°13' E 005°17'611.7
2017-Sep-25 05:29N 60°08' E 005°13'2 4.6
2017-Sep-25 05:00N 60°10' E 005°16'4 7.7
2017-Sep-25 04:30N 60°13' E 005°17'612.4
2017-Sep-25 04:00N 60°08' E 005°13'0 0.8
2017-Sep-25 03:30N 60°07' E 005°12'0 0.0
2017-Sep-25 03:00N 60°07' E 005°12'0 0.0
2017-Sep-25 02:30N 60°07' E 005°12'0 0.0
2017-Sep-25 02:00N 60°07' E 005°12'0 0.0
2017-Sep-25 01:30N 60°07' E 005°12'0 0.0
2017-Sep-25 01:00N 60°07' E 005°12'0 0.0
2017-Sep-25 00:30N 60°07' E 005°12'0 0.0
2017-Sep-25 00:00N 60°07' E 005°12'0 0.0
2017-Sep-24 23:30N 60°07' E 005°12'0 0.0
2017-Sep-24 23:00N 60°07' E 005°12'0 0.0
2017-Sep-24 22:30N 60°07' E 005°12'0 0.0
2017-Sep-24 22:00N 60°07' E 005°12'5 9.7
2017-Sep-24 21:30N 60°12' E 005°17'1 1.9
2017-Sep-24 21:00N 60°11' E 005°17'3 6.5
2017-Sep-24 20:30N 60°08' E 005°13'611.7
2017-Sep-24 20:00N 60°13' E 005°17'2 3.3
2017-Sep-24 19:30N 60°12' E 005°17'510.3
2017-Sep-24 19:00N 60°07' E 005°12'510.6
2017-Sep-24 18:29N 60°12' E 005°17'2 4.2
2017-Sep-24 18:00N 60°10' E 005°16'2 4.8
2017-Sep-24 17:30N 60°08' E 005°14'611.2
2017-Sep-24 17:00N 60°13' E 005°17'510.2
2017-Sep-24 16:30N 60°08' E 005°14'1 2.9
2017-Sep-24 16:00N 60°10' E 005°16'3 6.7
2017-Sep-24 15:30N 60°13' E 005°18'612.6
2017-Sep-24 15:00N 60°07' E 005°12'510.0
2017-Sep-24 14:30N 60°12' E 005°17'0 0.4
2017-Sep-24 14:00N 60°11' E 005°17'5 9.4
2017-Sep-24 13:30N 60°08' E 005°12'612.2
2017-Sep-24 12:59N 60°13' E 005°18'4 8.2
2017-Sep-24 12:30N 60°09' E 005°16'1 1.5
2017-Sep-24 12:00N 60°09' E 005°15'5 9.9
2017-Sep-24 11:30N 60°13' E 005°17'611.6
2017-Sep-24 11:00N 60°08' E 005°13'3 6.1
2017-Sep-24 10:30N 60°11' E 005°17'1 2.3
2017-Sep-24 10:00N 60°12' E 005°17'5 9.6
2017-Sep-24 09:30N 60°07' E 005°12'612.1
2017-Sep-24 09:00N 60°13' E 005°18'3 6.4
2017-Sep-24 08:30N 60°10' E 005°16'1 3.0
2017-Sep-24 08:00N 60°08' E 005°14'510.3
2017-Sep-24 07:30N 60°13' E 005°17'611.8
2017-Sep-24 07:00N 60°08' E 005°13'2 4.1
2017-Sep-24 06:30N 60°09' E 005°16'4 7.0
2017-Sep-24 06:00N 60°13' E 005°18'611.6
2017-Sep-24 05:30N 60°08' E 005°12'0 0.6
2017-Sep-24 05:00N 60°07' E 005°12'0 0.0
2017-Sep-24 04:30N 60°07' E 005°12'0 0.0
2017-Sep-24 04:00N 60°07' E 005°12'0 0.0
2017-Sep-24 03:30N 60°07' E 005°12'0 0.0
2017-Sep-24 03:00N 60°07' E 005°12'0 0.0
2017-Sep-24 02:29N 60°07' E 005°12'0 0.0
2017-Sep-24 02:00N 60°07' E 005°12'0 0.0
2017-Sep-24 01:30N 60°07' E 005°12'0 0.0
2017-Sep-24 00:59N 60°07' E 005°12'0 0.0
2017-Sep-24 00:29N 60°07' E 005°12'0 0.0
2017-Sep-24 00:00N 60°07' E 005°12'0 0.0
2017-Sep-23 23:30N 60°07' E 005°12'0 0.0
2017-Sep-23 23:00N 60°07' E 005°12'611.6
2017-Sep-23 22:30N 60°13' E 005°18'1 1.8
2017-Sep-23 22:00N 60°13' E 005°17'0 0.0
2017-Sep-23 21:30N 60°13' E 005°17'3 5.9
2017-Sep-23 21:00N 60°11' E 005°17'3 5.9
2017-Sep-23 20:30N 60°08' E 005°13'611.2
2017-Sep-23 19:59N 60°13' E 005°17'7 0.2
2017-Sep-22 02:00N 60°07' E 005°12'0 0.0
2017-Sep-22 01:30N 60°07' E 005°12'0 0.0
2017-Sep-22 00:59N 60°07' E 005°12'0 0.0
2017-Sep-22 00:30N 60°07' E 005°12'0 0.0
2017-Sep-22 00:00N 60°07' E 005°12'0 0.0
2017-Sep-21 23:29N 60°07' E 005°12'0 0.0
2017-Sep-21 23:00N 60°07' E 005°12'0 0.0
2017-Sep-21 22:30N 60°07' E 005°12'0 0.0
2017-Sep-21 22:00N 60°07' E 005°12'510.0
2017-Sep-21 21:30N 60°12' E 005°17'1 2.6
2017-Sep-21 21:00N 60°11' E 005°16'3 5.5
2017-Sep-21 20:30N 60°08' E 005°14'611.3
2017-Sep-21 20:00N 60°13' E 005°17'1 2.3
2017-Sep-21 19:30N 60°12' E 005°18'611.3
2017-Sep-21 19:00N 60°07' E 005°12'510.1
2017-Sep-21 18:30N 60°12' E 005°17'1 1.9
2017-Sep-21 18:00N 60°11' E 005°17'3 6.6
2017-Sep-21 17:30N 60°08' E 005°13'611.5
2017-Sep-21 17:00N 60°13' E 005°17'510.1
2017-Sep-21 16:30N 60°09' E 005°15'2 3.1
2017-Sep-21 16:00N 60°10' E 005°16'2 4.5
2017-Sep-21 15:30N 60°12' E 005°18'510.8
2017-Sep-21 15:00N 60°07' E 005°12'611.6
2017-Sep-21 14:30N 60°13' E 005°18'2 4.9
2017-Sep-21 14:00N 60°10' E 005°16'3 5.4
2017-Sep-21 13:30N 60°08' E 005°13'611.7
2017-Sep-21 13:00N 60°13' E 005°17'5 9.3
2017-Sep-21 12:30N 60°09' E 005°15'0 0.2
2017-Sep-21 12:00N 60°09' E 005°15'5 9.5
2017-Sep-21 11:30N 60°13' E 005°17'611.7
2017-Sep-21 11:00N 60°08' E 005°13'3 6.1
2017-Sep-21 10:30N 60°10' E 005°17'1 2.5
2017-Sep-21 10:00N 60°12' E 005°17'510.0
2017-Sep-21 09:30N 60°07' E 005°12'612.1
2017-Sep-21 09:00N 60°13' E 005°18'3 6.9
2017-Sep-21 08:30N 60°09' E 005°16'1 2.0
2017-Sep-21 08:00N 60°09' E 005°15'510.2
2017-Sep-21 07:30N 60°13' E 005°17'611.8
2017-Sep-21 07:00N 60°08' E 005°13'2 4.3
2017-Sep-21 06:30N 60°10' E 005°16'4 8.0
2017-Sep-21 06:00N 60°13' E 005°17'611.8
2017-Sep-21 05:30N 60°08' E 005°13'2 4.5
2017-Sep-21 05:00N 60°10' E 005°16'4 7.9
2017-Sep-21 04:30N 60°13' E 005°17'611.6
2017-Sep-21 04:00N 60°08' E 005°13'1 1.6
2017-Sep-21 03:30N 60°07' E 005°12'0 0.0
2017-Sep-21 03:00N 60°07' E 005°12'0 0.0
2017-Sep-21 02:30N 60°07' E 005°12'0 0.0
2017-Sep-21 02:00N 60°07' E 005°12'0 0.0
2017-Sep-21 01:30N 60°07' E 005°12'0 0.0
2017-Sep-21 01:00N 60°07' E 005°12'0 0.0
2017-Sep-21 00:31N 60°07' E 005°12'0 0.0
2017-Sep-20 23:59N 60°07' E 005°12'0 0.0
2017-Sep-20 23:30N 60°07' E 005°12'0 0.0
2017-Sep-20 23:00N 60°07' E 005°12'0 0.0
2017-Sep-20 22:30N 60°07' E 005°12'0 0.0
2017-Sep-20 22:00N 60°07' E 005°12'5 9.8
2017-Sep-20 21:30N 60°12' E 005°17'1 2.0
2017-Sep-20 21:00N 60°11' E 005°16'3 5.9
2017-Sep-20 20:30N 60°08' E 005°13'611.5
2017-Sep-20 20:00N 60°13' E 005°17'1 1.6
2017-Sep-20 19:30N 60°13' E 005°18'611.9
2017-Sep-20 19:00N 60°07' E 005°12'510.1
2017-Sep-20 18:30N 60°12' E 005°17'2 3.0
2017-Sep-20 18:00N 60°10' E 005°16'2 4.5
2017-Sep-20 17:30N 60°08' E 005°14'511.0
2017-Sep-20 17:00N 60°13' E 005°17'611.5
2017-Sep-20 16:30N 60°08' E 005°13'3 5.8
2017-Sep-20 16:00N 60°10' E 005°16'2 3.2
2017-Sep-20 15:30N 60°12' E 005°17'510.5
2017-Sep-20 15:00N 60°07' E 005°12'3 3.0
2017-Sep-20 14:00N 60°10' E 005°16'1 2.3
2017-Sep-20 13:30N 60°09' E 005°15'510.0
2017-Sep-20 13:00N 60°13' E 005°17'611.5
2017-Sep-20 12:31N 60°08' E 005°14'3 5.3
2017-Sep-20 12:00N 60°10' E 005°16'2 3.1
2017-Sep-20 11:30N 60°12' E 005°17'510.7
2017-Sep-20 11:00N 60°07' E 005°12'612.2
2017-Sep-20 10:30N 60°13' E 005°18'4 7.2
2017-Sep-20 10:00N 60°09' E 005°16'0 0.3
2017-Sep-20 09:29N 60°09' E 005°15'4 8.5
2017-Sep-20 09:00N 60°13' E 005°18'612.8
2017-Sep-20 08:30N 60°07' E 005°12'4 7.3
2017-Sep-20 08:00N 60°10' E 005°16'2 4.9
2017-Sep-20 07:30N 60°13' E 005°18'612.1
2017-Sep-20 07:00N 60°07' E 005°12'4 8.3
2017-Sep-20 06:30N 60°11' E 005°17'3 5.1
2017-Sep-20 06:00N 60°13' E 005°17'611.9
2017-Sep-20 05:30N 60°08' E 005°13'2 4.7
2017-Sep-20 05:00N 60°10' E 005°16'4 7.6
2017-Sep-20 04:30N 60°13' E 005°17'612.0
2017-Sep-20 04:00N 60°08' E 005°13'1 1.3
2017-Sep-20 03:31N 60°07' E 005°12'0 0.0
2017-Sep-20 03:00N 60°07' E 005°12'0 0.0
2017-Sep-20 02:30N 60°07' E 005°12'0 0.0
2017-Sep-20 02:00N 60°07' E 005°12'0 0.0
2017-Sep-20 01:30N 60°07' E 005°12'0 0.0
2017-Sep-20 01:00N 60°07' E 005°12'0 0.0
2017-Sep-20 00:30N 60°07' E 005°12'0 0.0
2017-Sep-20 00:00N 60°07' E 005°12'0 0.0
2017-Sep-19 23:30N 60°07' E 005°12'0 0.0
2017-Sep-19 23:00N 60°07' E 005°12'0 0.0
2017-Sep-19 22:30N 60°07' E 005°12'0 0.0
2017-Sep-19 22:00N 60°07' E 005°12'510.0
2017-Sep-19 21:30N 60°12' E 005°17'1 2.5
2017-Sep-19 21:00N 60°10' E 005°17'3 5.7
2017-Sep-19 20:30N 60°08' E 005°14'611.7
2017-Sep-19 20:00N 60°13' E 005°17'3 5.2
2017-Sep-19 19:30N 60°11' E 005°17'3 6.5
2017-Sep-19 19:00N 60°08' E 005°13'611.6
2017-Sep-19 18:30N 60°13' E 005°17'510.6
2017-Sep-19 18:01N 60°08' E 005°15'2 3.5
2017-Sep-19 17:30N 60°10' E 005°16'3 5.5
2017-Sep-19 17:00N 60°13' E 005°18'611.7
2017-Sep-19 16:30N 60°07' E 005°12'5 9.3
2017-Sep-19 16:00N 60°11' E 005°17'0 0.3
2017-Sep-19 15:30N 60°11' E 005°17'5 8.9
2017-Sep-19 15:00N 60°08' E 005°12'612.5
2017-Sep-19 14:30N 60°13' E 005°18'4 7.2
2017-Sep-19 14:00N 60°10' E 005°16'2 3.3
2017-Sep-19 13:30N 60°08' E 005°14'511.2
2017-Sep-19 13:00N 60°13' E 005°17'510.0
2017-Sep-19 12:30N 60°09' E 005°15'1 2.0
2017-Sep-19 12:00N 60°10' E 005°15'4 7.3
2017-Sep-19 11:29N 60°13' E 005°18'612.4
2017-Sep-19 11:00N 60°08' E 005°13'4 7.5
2017-Sep-19 10:30N 60°11' E 005°17'1 1.2
2017-Sep-19 10:00N 60°11' E 005°17'5 9.8
2017-Sep-19 09:30N 60°07' E 005°12'612.3
2017-Sep-19 09:00N 60°13' E 005°18'4 7.2
2017-Sep-19 08:30N 60°10' E 005°16'1 2.6
2017-Sep-19 08:00N 60°08' E 005°15'510.0
2017-Sep-19 07:30N 60°13' E 005°17'611.8
2017-Sep-19 07:00N 60°08' E 005°13'2 3.9
2017-Sep-19 06:30N 60°09' E 005°16'4 7.9
2017-Sep-19 06:00N 60°13' E 005°18'611.7
2017-Sep-19 05:30N 60°08' E 005°13'2 3.8
2017-Sep-19 05:00N 60°09' E 005°16'4 8.4
2017-Sep-19 04:30N 60°13' E 005°17'611.7
2017-Sep-19 04:00N 60°08' E 005°13'1 1.3
2017-Sep-19 03:30N 60°07' E 005°12'0 0.0
2017-Sep-19 03:00N 60°07' E 005°12'0 0.0
2017-Sep-19 02:30N 60°07' E 005°12'0 0.0
2017-Sep-19 02:00N 60°07' E 005°12'0 0.0
2017-Sep-19 01:30N 60°07' E 005°12'0 0.0
2017-Sep-19 01:00N 60°07' E 005°12'0 0.0
2017-Sep-19 00:30N 60°07' E 005°12'0 0.0
2017-Sep-19 00:00N 60°07' E 005°12'0 0.0
2017-Sep-18 23:30N 60°07' E 005°12'0 0.0
2017-Sep-18 23:00N 60°07' E 005°12'0 0.0
2017-Sep-18 22:30N 60°07' E 005°12'0 0.0
2017-Sep-18 22:00N 60°07' E 005°12'5 9.8
2017-Sep-18 21:30N 60°12' E 005°17'1 2.6
2017-Sep-18 21:00N 60°10' E 005°16'3 5.6
2017-Sep-18 20:30N 60°08' E 005°13'611.7
2017-Sep-18 20:00N 60°13' E 005°17'1 2.7
2017-Sep-18 19:30N 60°12' E 005°18'510.8
2017-Sep-18 19:00N 60°07' E 005°12'5 9.8
2017-Sep-18 18:30N 60°12' E 005°17'1 2.1
2017-Sep-18 18:00N 60°11' E 005°17'3 6.6
2017-Sep-18 17:30N 60°08' E 005°13'611.6
2017-Sep-18 17:00N 60°13' E 005°17'5 9.9
2017-Sep-18 16:30N 60°09' E 005°15'1 1.1
2017-Sep-18 16:00N 60°09' E 005°15'4 7.7
2017-Sep-18 15:30N 60°13' E 005°18'612.4
2017-Sep-18 15:00N 60°07' E 005°12'5 9.6
2017-Sep-18 14:29N 60°12' E 005°17'0 0.3
2017-Sep-18 14:00N 60°12' E 005°17'5 9.9
2017-Sep-18 13:30N 60°07' E 005°12'612.2
2017-Sep-18 13:01N 60°13' E 005°18'4 7.3
2017-Sep-18 12:30N 60°09' E 005°16'0 0.5
2017-Sep-18 12:00N 60°09' E 005°15'4 8.8
2017-Sep-18 11:30N 60°13' E 005°18'612.2
2017-Sep-18 11:00N 60°08' E 005°13'4 7.6
2017-Sep-18 10:29N 60°11' E 005°17'1 1.5
2017-Sep-18 10:00N 60°12' E 005°17'510.4
2017-Sep-18 09:30N 60°07' E 005°12'611.9
2017-Sep-18 09:00N 60°13' E 005°18'3 6.3
2017-Sep-18 08:30N 60°10' E 005°16'1 2.0
2017-Sep-18 08:00N 60°09' E 005°15'5 9.9
2017-Sep-18 07:30N 60°13' E 005°17'611.8
2017-Sep-18 07:00N 60°08' E 005°13'2 3.8
2017-Sep-18 06:30N 60°09' E 005°16'4 8.1
2017-Sep-18 06:00N 60°13' E 005°17'611.7
2017-Sep-18 05:30N 60°08' E 005°13'2 4.2
2017-Sep-18 05:00N 60°10' E 005°16'4 7.7
2017-Sep-18 04:30N 60°13' E 005°17'611.8
2017-Sep-18 04:00N 60°08' E 005°13'1 1.4
2017-Sep-18 03:29N 60°07' E 005°12'0 0.0
2017-Sep-18 03:00N 60°07' E 005°12'0 0.0
2017-Sep-18 02:30N 60°07' E 005°12'0 0.0
2017-Sep-18 02:00N 60°07' E 005°12'0 0.0
2017-Sep-18 01:30N 60°07' E 005°12'0 0.0
2017-Sep-18 01:00N 60°07' E 005°12'0 0.0
2017-Sep-18 00:30N 60°07' E 005°12'0 0.0
2017-Sep-18 00:00N 60°07' E 005°12'0 0.0
2017-Sep-17 23:30N 60°07' E 005°12'0 0.0
2017-Sep-17 23:00N 60°07' E 005°12'0 0.0
2017-Sep-17 22:30N 60°07' E 005°12'0 0.0
2017-Sep-17 22:00N 60°07' E 005°12'510.2
2017-Sep-17 21:30N 60°12' E 005°17'1 2.3
2017-Sep-17 21:00N 60°11' E 005°17'3 5.7
2017-Sep-17 20:30N 60°08' E 005°14'611.5
2017-Sep-17 20:00N 60°13' E 005°17'2 3.4
2017-Sep-17 19:29N 60°12' E 005°18'510.2
2017-Sep-17 19:00N 60°07' E 005°12'511.1
2017-Sep-17 18:30N 60°12' E 005°18'2 4.0
2017-Sep-17 18:00N 60°10' E 005°17'2 4.7
2017-Sep-17 17:30N 60°08' E 005°14'511.2
2017-Sep-17 17:00N 60°13' E 005°17'510.4
2017-Sep-17 16:30N 60°08' E 005°15'1 2.4
2017-Sep-17 16:00N 60°09' E 005°16'3 6.5
2017-Sep-17 15:30N 60°13' E 005°18'612.1
2017-Sep-17 15:00N 60°07' E 005°12'5 9.9
2017-Sep-17 14:30N 60°12' E 005°17'0 0.8
2017-Sep-17 14:00N 60°12' E 005°18'510.8
2017-Sep-17 13:30N 60°07' E 005°12'611.7
2017-Sep-17 13:00N 60°12' E 005°18'3 5.9
2017-Sep-17 12:30N 60°10' E 005°16'1 2.5
2017-Sep-17 12:01N 60°09' E 005°15'5 9.7
2017-Sep-17 11:30N 60°13' E 005°17'611.7
2017-Sep-17 11:00N 60°08' E 005°14'3 5.7
2017-Sep-17 10:30N 60°10' E 005°16'1 2.5
2017-Sep-17 10:00N 60°12' E 005°17'510.2
2017-Sep-17 09:30N 60°07' E 005°12'611.9
2017-Sep-17 09:00N 60°13' E 005°18'3 5.8
2017-Sep-17 08:30N 60°10' E 005°16'1 2.7
2017-Sep-17 08:00N 60°09' E 005°15'510.1
2017-Sep-17 07:30N 60°13' E 005°17'611.8
2017-Sep-17 07:00N 60°08' E 005°13'2 4.2
2017-Sep-17 06:29N 60°10' E 005°16'4 7.6
2017-Sep-17 06:00N 60°13' E 005°18'611.6
2017-Sep-17 05:30N 60°08' E 005°13'1 1.5
2017-Sep-17 05:00N 60°07' E 005°12'0 0.0
2017-Sep-17 04:30N 60°07' E 005°12'0 0.0
2017-Sep-17 04:00N 60°07' E 005°12'0 0.0
2017-Sep-17 03:29N 60°07' E 005°12'0 0.0
2017-Sep-17 03:00N 60°07' E 005°12'0 0.0
2017-Sep-17 02:30N 60°07' E 005°12'0 0.0
2017-Sep-17 02:00N 60°07' E 005°12'0 0.0
2017-Sep-17 01:30N 60°07' E 005°12'0 0.0
2017-Sep-17 01:00N 60°07' E 005°12'0 0.0
2017-Sep-17 00:30N 60°07' E 005°12'0 0.0
2017-Sep-17 00:00N 60°07' E 005°12'0 0.0
2017-Sep-16 23:30N 60°07' E 005°12'0 0.0
2017-Sep-16 22:59N 60°07' E 005°12'510.0
2017-Sep-16 22:30N 60°12' E 005°17'2 3.6
2017-Sep-16 22:00N 60°13' E 005°17'0 0.0
2017-Sep-16 21:30N 60°13' E 005°17'3 5.9
2017-Sep-16 21:00N 60°11' E 005°16'3 6.2
2017-Sep-16 20:30N 60°08' E 005°13'611.5
2017-Sep-16 20:00N 60°13' E 005°17'1 2.0
2017-Sep-16 19:30N 60°12' E 005°18'611.5
2017-Sep-16 19:00N 60°07' E 005°12'5 9.8
2017-Sep-16 18:30N 60°12' E 005°17'1 2.0
2017-Sep-16 18:00N 60°11' E 005°17'3 6.6
2017-Sep-16 17:30N 60°08' E 005°13'611.8
2017-Sep-16 17:00N 60°13' E 005°17'510.6
2017-Sep-16 16:30N 60°08' E 005°14'2 3.3
2017-Sep-16 16:00N 60°10' E 005°16'3 5.7
2017-Sep-16 15:30N 60°13' E 005°18'611.9
2017-Sep-16 15:00N 60°07' E 005°12'5 9.9
2017-Sep-16 14:30N 60°12' E 005°17'0 0.7
2017-Sep-16 14:00N 60°11' E 005°17'5 9.3
2017-Sep-16 13:30N 60°07' E 005°12'612.0
2017-Sep-16 13:00N 60°13' E 005°18'3 6.7
2017-Sep-16 12:30N 60°10' E 005°16'1 2.1
2017-Sep-16 12:00N 60°09' E 005°15'510.0
2017-Sep-16 11:30N 60°13' E 005°17'612.4
2017-Sep-16 11:00N 60°08' E 005°13'4 7.7
2017-Sep-16 10:30N 60°11' E 005°17'1 1.1
2017-Sep-16 10:00N 60°11' E 005°17'5 9.4
2017-Sep-16 09:31N 60°07' E 005°12'612.2
2017-Sep-16 09:00N 60°13' E 005°18'4 7.4
2017-Sep-16 08:31N 60°09' E 005°16'1 1.5
2017-Sep-16 08:00N 60°09' E 005°15'5 9.7
2017-Sep-16 07:30N 60°13' E 005°17'611.7
2017-Sep-16 07:00N 60°08' E 005°13'2 4.6
2017-Sep-16 06:30N 60°10' E 005°16'4 7.6
2017-Sep-16 06:00N 60°13' E 005°17'611.5
2017-Sep-16 05:29N 60°08' E 005°13'2 4.9
2017-Sep-16 05:00N 60°10' E 005°16'4 7.3
2017-Sep-16 04:30N 60°13' E 005°18'611.6
2017-Sep-16 04:00N 60°08' E 005°13'1 1.3
2017-Sep-16 03:30N 60°07' E 005°12'0 0.0
2017-Sep-16 03:00N 60°07' E 005°12'0 0.0
2017-Sep-16 02:30N 60°07' E 005°12'0 0.0
2017-Sep-16 02:00N 60°07' E 005°12'0 0.0
2017-Sep-16 01:30N 60°07' E 005°12'0 0.0
2017-Sep-16 01:00N 60°07' E 005°12'0 0.0
2017-Sep-16 00:30N 60°07' E 005°12'0 0.0
2017-Sep-16 00:00N 60°07' E 005°12'0 0.0
2017-Sep-15 23:30N 60°07' E 005°12'0 0.0
2017-Sep-15 22:59N 60°07' E 005°12'510.1
2017-Sep-15 22:30N 60°12' E 005°17'2 3.6
2017-Sep-15 22:00N 60°13' E 005°17'0 0.0
2017-Sep-15 21:30N 60°13' E 005°17'3 6.0
2017-Sep-15 21:00N 60°10' E 005°17'3 6.2
2017-Sep-15 20:30N 60°08' E 005°13'612.1
2017-Sep-15 20:00N 60°13' E 005°17'3 6.8
2017-Sep-15 19:30N 60°10' E 005°16'2 4.0
2017-Sep-15 19:00N 60°08' E 005°14'510.4
2017-Sep-15 18:30N 60°13' E 005°17'611.9
2017-Sep-15 18:00N 60°08' E 005°13'4 7.3
2017-Sep-15 17:30N 60°11' E 005°17'0 0.4
2017-Sep-15 17:00N 60°11' E 005°17'5 9.2
2017-Sep-15 16:30N 60°07' E 005°12'612.0
2017-Sep-15 15:59N 60°13' E 005°18'2 4.7
2017-Sep-15 15:30N 60°11' E 005°17'4 7.9
2017-Sep-15 15:00N 60°07' E 005°12'612.8
2017-Sep-15 14:30N 60°13' E 005°18'3 5.1
2017-Sep-15 14:00N 60°10' E 005°17'4 7.5
2017-Sep-15 13:30N 60°08' E 005°12'612.5
2017-Sep-15 13:00N 60°13' E 005°17'5 9.1
2017-Sep-15 12:30N 60°09' E 005°15'0 0.2
2017-Sep-15 12:00N 60°09' E 005°15'5 9.3
2017-Sep-15 11:30N 60°13' E 005°17'611.9
2017-Sep-15 11:00N 60°08' E 005°13'3 6.1
2017-Sep-15 10:30N 60°11' E 005°16'1 2.7
2017-Sep-15 10:00N 60°12' E 005°17'5 9.9
2017-Sep-15 09:30N 60°07' E 005°12'612.2
2017-Sep-15 09:00N 60°13' E 005°18'3 6.3
2017-Sep-15 08:30N 60°10' E 005°16'  
Track history (hours):
 
Tides and Currents Weather Stations Pressure Air Temp Water Temp Dewpoint Dewpoint Depression Visibility Wind Speed Wind Dir Waves Ship Positions

Marstein

Last reported at 2017-Sep-25 08:01 UTC. Time now 2017-Sep-25 08:17 UTC.
Position N 60°08' E 005°15'.

Length 87 m; draft 4.7 m.

Type: Passenger vessel. MMSI: 257317400.

Date/timePositionNaut miles runAvg speedWind from/ knotsBaromVisibWave heightAir tempDewpointWater temp
2017-Sep-25 08:01N 60°08' E 005°15'510.1
2017-Sep-25 07:30N 60°13' E 005°17'611.8
2017-Sep-25 07:00N 60°08' E 005°13'2 4.5
2017-Sep-25 06:30N 60°10' E 005°16'4 7.5
2017-Sep-25 06:00N 60°13' E 005°17'611.7
2017-Sep-25 05:29N 60°08' E 005°13'2 4.6
2017-Sep-25 05:00N 60°10' E 005°16'4 7.7
2017-Sep-25 04:30N 60°13' E 005°17'612.4
2017-Sep-25 04:00N 60°08' E 005°13'0 0.8
2017-Sep-25 03:30N 60°07' E 005°12'0 0.0
2017-Sep-25 03:00N 60°07' E 005°12'0 0.0
2017-Sep-25 02:30N 60°07' E 005°12'0 0.0
2017-Sep-25 02:00N 60°07' E 005°12'0 0.0
2017-Sep-25 01:30N 60°07' E 005°12'0 0.0
2017-Sep-25 01:00N 60°07' E 005°12'0 0.0
2017-Sep-25 00:30N 60°07' E 005°12'0 0.0
2017-Sep-25 00:00N 60°07' E 005°12'0 0.0
2017-Sep-24 23:30N 60°07' E 005°12'0 0.0
2017-Sep-24 23:00N 60°07' E 005°12'0 0.0
2017-Sep-24 22:30N 60°07' E 005°12'0 0.0
2017-Sep-24 22:00N 60°07' E 005°12'5 9.7
2017-Sep-24 21:30N 60°12' E 005°17'1 1.9
2017-Sep-24 21:00N 60°11' E 005°17'3 6.5
2017-Sep-24 20:30N 60°08' E 005°13'611.7
2017-Sep-24 20:00N 60°13' E 005°17'2 3.3
2017-Sep-24 19:30N 60°12' E 005°17'510.3
2017-Sep-24 19:00N 60°07' E 005°12'510.6
2017-Sep-24 18:29N 60°12' E 005°17'2 4.2
2017-Sep-24 18:00N 60°10' E 005°16'2 4.8
2017-Sep-24 17:30N 60°08' E 005°14'611.2
2017-Sep-24 17:00N 60°13' E 005°17'510.2
2017-Sep-24 16:30N 60°08' E 005°14'1 2.9
2017-Sep-24 16:00N 60°10' E 005°16'3 6.7
2017-Sep-24 15:30N 60°13' E 005°18'612.6
2017-Sep-24 15:00N 60°07' E 005°12'510.0
2017-Sep-24 14:30N 60°12' E 005°17'0 0.4
2017-Sep-24 14:00N 60°11' E 005°17'5 9.4
2017-Sep-24 13:30N 60°08' E 005°12'612.2
2017-Sep-24 12:59N 60°13' E 005°18'4 8.2
2017-Sep-24 12:30N 60°09' E 005°16'1 1.5
2017-Sep-24 12:00N 60°09' E 005°15'5 9.9
2017-Sep-24 11:30N 60°13' E 005°17'611.6
2017-Sep-24 11:00N 60°08' E 005°13'3 6.1
2017-Sep-24 10:30N 60°11' E 005°17'1 2.3
2017-Sep-24 10:00N 60°12' E 005°17'5 9.6
2017-Sep-24 09:30N 60°07' E 005°12'612.1
2017-Sep-24 09:00N 60°13' E 005°18'3 6.4
2017-Sep-24 08:30N 60°10' E 005°16'1 3.0
2017-Sep-24 08:00N 60°08' E 005°14'510.3
2017-Sep-24 07:30N 60°13' E 005°17'611.8
2017-Sep-24 07:00N 60°08' E 005°13'2 4.1
2017-Sep-24 06:30N 60°09' E 005°16'4 7.0
2017-Sep-24 06:00N 60°13' E 005°18'611.6
2017-Sep-24 05:30N 60°08' E 005°12'0 0.6
2017-Sep-24 05:00N 60°07' E 005°12'0 0.0
2017-Sep-24 04:30N 60°07' E 005°12'0 0.0
2017-Sep-24 04:00N 60°07' E 005°12'0 0.0
2017-Sep-24 03:30N 60°07' E 005°12'0 0.0
2017-Sep-24 03:00N 60°07' E 005°12'0 0.0
2017-Sep-24 02:29N 60°07' E 005°12'0 0.0
2017-Sep-24 02:00N 60°07' E 005°12'0 0.0
2017-Sep-24 01:30N 60°07' E 005°12'0 0.0
2017-Sep-24 00:59N 60°07' E 005°12'0 0.0
2017-Sep-24 00:29N 60°07' E 005°12'0 0.0
2017-Sep-24 00:00N 60°07' E 005°12'0 0.0
2017-Sep-23 23:30N 60°07' E 005°12'0 0.0
2017-Sep-23 23:00N 60°07' E 005°12'611.6
2017-Sep-23 22:30N 60°13' E 005°18'1 1.8
2017-Sep-23 22:00N 60°13' E 005°17'0 0.0
2017-Sep-23 21:30N 60°13' E 005°17'3 5.9
2017-Sep-23 21:00N 60°11' E 005°17'3 5.9
2017-Sep-23 20:30N 60°08' E 005°13'611.2
2017-Sep-23 19:59N 60°13' E 005°17'7 0.2
2017-Sep-22 02:00N 60°07' E 005°12'0 0.0
2017-Sep-22 01:30N 60°07' E 005°12'0 0.0
2017-Sep-22 00:59N 60°07' E 005°12'0 0.0
2017-Sep-22 00:30N 60°07' E 005°12'0 0.0
2017-Sep-22 00:00N 60°07' E 005°12'0 0.0
2017-Sep-21 23:29N 60°07' E 005°12'0 0.0
2017-Sep-21 23:00N 60°07' E 005°12'0 0.0
2017-Sep-21 22:30N 60°07' E 005°12'0 0.0
2017-Sep-21 22:00N 60°07' E 005°12'510.0
2017-Sep-21 21:30N 60°12' E 005°17'1 2.6
2017-Sep-21 21:00N 60°11' E 005°16'3 5.5
2017-Sep-21 20:30N 60°08' E 005°14'611.3
2017-Sep-21 20:00N 60°13' E 005°17'1 2.3
2017-Sep-21 19:30N 60°12' E 005°18'611.3
2017-Sep-21 19:00N 60°07' E 005°12'510.1
2017-Sep-21 18:30N 60°12' E 005°17'1 1.9
2017-Sep-21 18:00N 60°11' E 005°17'3 6.6
2017-Sep-21 17:30N 60°08' E 005°13'611.5
2017-Sep-21 17:00N 60°13' E 005°17'510.1
2017-Sep-21 16:30N 60°09' E 005°15'2 3.1
2017-Sep-21 16:00N 60°10' E 005°16'2 4.5
2017-Sep-21 15:30N 60°12' E 005°18'510.8
2017-Sep-21 15:00N 60°07' E 005°12'611.6
2017-Sep-21 14:30N 60°13' E 005°18'2 4.9
2017-Sep-21 14:00N 60°10' E 005°16'3 5.4
2017-Sep-21 13:30N 60°08' E 005°13'611.7
2017-Sep-21 13:00N 60°13' E 005°17'5 9.3
2017-Sep-21 12:30N 60°09' E 005°15'0 0.2
2017-Sep-21 12:00N 60°09' E 005°15'5 9.5
2017-Sep-21 11:30N 60°13' E 005°17'611.7
2017-Sep-21 11:00N 60°08' E 005°13'3 6.1
2017-Sep-21 10:30N 60°10' E 005°17'1 2.5
2017-Sep-21 10:00N 60°12' E 005°17'510.0
2017-Sep-21 09:30N 60°07' E 005°12'612.1
2017-Sep-21 09:00N 60°13' E 005°18'3 6.9
2017-Sep-21 08:30N 60°09' E 005°16'1 2.0
2017-Sep-21 08:00N 60°09' E 005°15'510.2
2017-Sep-21 07:30N 60°13' E 005°17'611.8
2017-Sep-21 07:00N 60°08' E 005°13'2 4.3
2017-Sep-21 06:30N 60°10' E 005°16'4 8.0
2017-Sep-21 06:00N 60°13' E 005°17'611.8
2017-Sep-21 05:30N 60°08' E 005°13'2 4.5
2017-Sep-21 05:00N 60°10' E 005°16'4 7.9
2017-Sep-21 04:30N 60°13' E 005°17'611.6
2017-Sep-21 04:00N 60°08' E 005°13'1 1.6
2017-Sep-21 03:30N 60°07' E 005°12'0 0.0
2017-Sep-21 03:00N 60°07' E 005°12'0 0.0
2017-Sep-21 02:30N 60°07' E 005°12'0 0.0
2017-Sep-21 02:00N 60°07' E 005°12'0 0.0
2017-Sep-21 01:30N 60°07' E 005°12'0 0.0
2017-Sep-21 01:00N 60°07' E 005°12'0 0.0
2017-Sep-21 00:31N 60°07' E 005°12'0 0.0
2017-Sep-20 23:59N 60°07' E 005°12'0 0.0
2017-Sep-20 23:30N 60°07' E 005°12'0 0.0
2017-Sep-20 23:00N 60°07' E 005°12'0 0.0
2017-Sep-20 22:30N 60°07' E 005°12'0 0.0
2017-Sep-20 22:00N 60°07' E 005°12'5 9.8
2017-Sep-20 21:30N 60°12' E 005°17'1 2.0
2017-Sep-20 21:00N 60°11' E 005°16'3 5.9
2017-Sep-20 20:30N 60°08' E 005°13'611.5
2017-Sep-20 20:00N 60°13' E 005°17'1 1.6
2017-Sep-20 19:30N 60°13' E 005°18'611.9
2017-Sep-20 19:00N 60°07' E 005°12'510.1
2017-Sep-20 18:30N 60°12' E 005°17'2 3.0
2017-Sep-20 18:00N 60°10' E 005°16'2 4.5
2017-Sep-20 17:30N 60°08' E 005°14'511.0
2017-Sep-20 17:00N 60°13' E 005°17'611.5
2017-Sep-20 16:30N 60°08' E 005°13'3 5.8
2017-Sep-20 16:00N 60°10' E 005°16'2 3.2
2017-Sep-20 15:30N 60°12' E 005°17'510.5
2017-Sep-20 15:00N 60°07' E 005°12'3 3.0
2017-Sep-20 14:00N 60°10' E 005°16'1 2.3
2017-Sep-20 13:30N 60°09' E 005°15'510.0
2017-Sep-20 13:00N 60°13' E 005°17'611.5
2017-Sep-20 12:31N 60°08' E 005°14'3 5.3
2017-Sep-20 12:00N 60°10' E 005°16'2 3.1
2017-Sep-20 11:30N 60°12' E 005°17'510.7
2017-Sep-20 11:00N 60°07' E 005°12'612.2
2017-Sep-20 10:30N 60°13' E 005°18'4 7.2
2017-Sep-20 10:00N 60°09' E 005°16'0 0.3
2017-Sep-20 09:29N 60°09' E 005°15'4 8.5
2017-Sep-20 09:00N 60°13' E 005°18'612.8
2017-Sep-20 08:30N 60°07' E 005°12'4 7.3
2017-Sep-20 08:00N 60°10' E 005°16'2 4.9
2017-Sep-20 07:30N 60°13' E 005°18'612.1
2017-Sep-20 07:00N 60°07' E 005°12'4 8.3
2017-Sep-20 06:30N 60°11' E 005°17'3 5.1
2017-Sep-20 06:00N 60°13' E 005°17'611.9
2017-Sep-20 05:30N 60°08' E 005°13'2 4.7
2017-Sep-20 05:00N 60°10' E 005°16'4 7.6
2017-Sep-20 04:30N 60°13' E 005°17'612.0
2017-Sep-20 04:00N 60°08' E 005°13'1 1.3
2017-Sep-20 03:31N 60°07' E 005°12'0 0.0
2017-Sep-20 03:00N 60°07' E 005°12'0 0.0
2017-Sep-20 02:30N 60°07' E 005°12'0 0.0
2017-Sep-20 02:00N 60°07' E 005°12'0 0.0
2017-Sep-20 01:30N 60°07' E 005°12'0 0.0
2017-Sep-20 01:00N 60°07' E 005°12'0 0.0
2017-Sep-20 00:30N 60°07' E 005°12'0 0.0
2017-Sep-20 00:00N 60°07' E 005°12'0 0.0
2017-Sep-19 23:30N 60°07' E 005°12'0 0.0
2017-Sep-19 23:00N 60°07' E 005°12'0 0.0
2017-Sep-19 22:30N 60°07' E 005°12'0 0.0
2017-Sep-19 22:00N 60°07' E 005°12'510.0
2017-Sep-19 21:30N 60°12' E 005°17'1 2.5
2017-Sep-19 21:00N 60°10' E 005°17'3 5.7
2017-Sep-19 20:30N 60°08' E 005°14'611.7
2017-Sep-19 20:00N 60°13' E 005°17'3 5.2
2017-Sep-19 19:30N 60°11' E 005°17'3 6.5
2017-Sep-19 19:00N 60°08' E 005°13'611.6
2017-Sep-19 18:30N 60°13' E 005°17'510.6
2017-Sep-19 18:01N 60°08' E 005°15'2 3.5
2017-Sep-19 17:30N 60°10' E 005°16'3 5.5
2017-Sep-19 17:00N 60°13' E 005°18'611.7
2017-Sep-19 16:30N 60°07' E 005°12'5 9.3
2017-Sep-19 16:00N 60°11' E 005°17'0 0.3
2017-Sep-19 15:30N 60°11' E 005°17'5 8.9
2017-Sep-19 15:00N 60°08' E 005°12'612.5
2017-Sep-19 14:30N 60°13' E 005°18'4 7.2
2017-Sep-19 14:00N 60°10' E 005°16'2 3.3
2017-Sep-19 13:30N 60°08' E 005°14'511.2
2017-Sep-19 13:00N 60°13' E 005°17'510.0
2017-Sep-19 12:30N 60°09' E 005°15'1 2.0
2017-Sep-19 12:00N 60°10' E 005°15'4 7.3
2017-Sep-19 11:29N 60°13' E 005°18'612.4
2017-Sep-19 11:00N 60°08' E 005°13'4 7.5
2017-Sep-19 10:30N 60°11' E 005°17'1 1.2
2017-Sep-19 10:00N 60°11' E 005°17'5 9.8
2017-Sep-19 09:30N 60°07' E 005°12'612.3
2017-Sep-19 09:00N 60°13' E 005°18'4 7.2
2017-Sep-19 08:30N 60°10' E 005°16'1 2.6
2017-Sep-19 08:00N 60°08' E 005°15'510.0
2017-Sep-19 07:30N 60°13' E 005°17'611.8
2017-Sep-19 07:00N 60°08' E 005°13'2 3.9
2017-Sep-19 06:30N 60°09' E 005°16'4 7.9
2017-Sep-19 06:00N 60°13' E 005°18'611.7
2017-Sep-19 05:30N 60°08' E 005°13'2 3.8
2017-Sep-19 05:00N 60°09' E 005°16'4 8.4
2017-Sep-19 04:30N 60°13' E 005°17'611.7
2017-Sep-19 04:00N 60°08' E 005°13'1 1.3
2017-Sep-19 03:30N 60°07' E 005°12'0 0.0
2017-Sep-19 03:00N 60°07' E 005°12'0 0.0
2017-Sep-19 02:30N 60°07' E 005°12'0 0.0
2017-Sep-19 02:00N 60°07' E 005°12'0 0.0
2017-Sep-19 01:30N 60°07' E 005°12'0 0.0
2017-Sep-19 01:00N 60°07' E 005°12'0 0.0
2017-Sep-19 00:30N 60°07' E 005°12'0 0.0
2017-Sep-19 00:00N 60°07' E 005°12'0 0.0
2017-Sep-18 23:30N 60°07' E 005°12'0 0.0
2017-Sep-18 23:00N 60°07' E 005°12'0 0.0
2017-Sep-18 22:30N 60°07' E 005°12'0 0.0
2017-Sep-18 22:00N 60°07' E 005°12'5 9.8
2017-Sep-18 21:30N 60°12' E 005°17'1 2.6
2017-Sep-18 21:00N 60°10' E 005°16'3 5.6
2017-Sep-18 20:30N 60°08' E 005°13'611.7
2017-Sep-18 20:00N 60°13' E 005°17'1 2.7
2017-Sep-18 19:30N 60°12' E 005°18'510.8
2017-Sep-18 19:00N 60°07' E 005°12'5 9.8
2017-Sep-18 18:30N 60°12' E 005°17'1 2.1
2017-Sep-18 18:00N 60°11' E 005°17'3 6.6
2017-Sep-18 17:30N 60°08' E 005°13'611.6
2017-Sep-18 17:00N 60°13' E 005°17'5 9.9
2017-Sep-18 16:30N 60°09' E 005°15'1 1.1
2017-Sep-18 16:00N 60°09' E 005°15'4 7.7
2017-Sep-18 15:30N 60°13' E 005°18'612.4
2017-Sep-18 15:00N 60°07' E 005°12'5 9.6
2017-Sep-18 14:29N 60°12' E 005°17'0 0.3
2017-Sep-18 14:00N 60°12' E 005°17'5 9.9
2017-Sep-18 13:30N 60°07' E 005°12'612.2
2017-Sep-18 13:01N 60°13' E 005°18'4 7.3
2017-Sep-18 12:30N 60°09' E 005°16'0 0.5
2017-Sep-18 12:00N 60°09' E 005°15'4 8.8
2017-Sep-18 11:30N 60°13' E 005°18'612.2
2017-Sep-18 11:00N 60°08' E 005°13'4 7.6
2017-Sep-18 10:29N 60°11' E 005°17'1 1.5
2017-Sep-18 10:00N 60°12' E 005°17'510.4
2017-Sep-18 09:30N 60°07' E 005°12'611.9
2017-Sep-18 09:00N 60°13' E 005°18'3 6.3
2017-Sep-18 08:30N 60°10' E 005°16'1 2.0
2017-Sep-18 08:00N 60°09' E 005°15'5 9.9
2017-Sep-18 07:30N 60°13' E 005°17'611.8
2017-Sep-18 07:00N 60°08' E 005°13'2 3.8
2017-Sep-18 06:30N 60°09' E 005°16'4 8.1
2017-Sep-18 06:00N 60°13' E 005°17'611.7
2017-Sep-18 05:30N 60°08' E 005°13'2 4.2
2017-Sep-18 05:00N 60°10' E 005°16'4 7.7
2017-Sep-18 04:30N 60°13' E 005°17'611.8
2017-Sep-18 04:00N 60°08' E 005°13'1 1.4
2017-Sep-18 03:29N 60°07' E 005°12'0 0.0
2017-Sep-18 03:00N 60°07' E 005°12'0 0.0
2017-Sep-18 02:30N 60°07' E 005°12'0 0.0
2017-Sep-18 02:00N 60°07' E 005°12'0 0.0
2017-Sep-18 01:30N 60°07' E 005°12'0 0.0
2017-Sep-18 01:00N 60°07' E 005°12'0 0.0
2017-Sep-18 00:30N 60°07' E 005°12'0 0.0
2017-Sep-18 00:00N 60°07' E 005°12'0 0.0
2017-Sep-17 23:30N 60°07' E 005°12'0 0.0
2017-Sep-17 23:00N 60°07' E 005°12'0 0.0
2017-Sep-17 22:30N 60°07' E 005°12'0 0.0
2017-Sep-17 22:00N 60°07' E 005°12'510.2
2017-Sep-17 21:30N 60°12' E 005°17'1 2.3
2017-Sep-17 21:00N 60°11' E 005°17'3 5.7
2017-Sep-17 20:30N 60°08' E 005°14'611.5
2017-Sep-17 20:00N 60°13' E 005°17'2 3.4
2017-Sep-17 19:29N 60°12' E 005°18'510.2
2017-Sep-17 19:00N 60°07' E 005°12'511.1
2017-Sep-17 18:30N 60°12' E 005°18'2 4.0
2017-Sep-17 18:00N 60°10' E 005°17'2 4.7
2017-Sep-17 17:30N 60°08' E 005°14'511.2
2017-Sep-17 17:00N 60°13' E 005°17'510.4
2017-Sep-17 16:30N 60°08' E 005°15'1 2.4
2017-Sep-17 16:00N 60°09' E 005°16'3 6.5
2017-Sep-17 15:30N 60°13' E 005°18'612.1
2017-Sep-17 15:00N 60°07' E 005°12'5 9.9
2017-Sep-17 14:30N 60°12' E 005°17'0 0.8
2017-Sep-17 14:00N 60°12' E 005°18'510.8
2017-Sep-17 13:30N 60°07' E 005°12'611.7
2017-Sep-17 13:00N 60°12' E 005°18'3 5.9
2017-Sep-17 12:30N 60°10' E 005°16'1 2.5
2017-Sep-17 12:01N 60°09' E 005°15'5 9.7
2017-Sep-17 11:30N 60°13' E 005°17'611.7
2017-Sep-17 11:00N 60°08' E 005°14'3 5.7
2017-Sep-17 10:30N 60°10' E 005°16'1 2.5
2017-Sep-17 10:00N 60°12' E 005°17'510.2
2017-Sep-17 09:30N 60°07' E 005°12'611.9
2017-Sep-17 09:00N 60°13' E 005°18'3 5.8
2017-Sep-17 08:30N 60°10' E 005°16'1 2.7
2017-Sep-17 08:00N 60°09' E 005°15'510.1
2017-Sep-17 07:30N 60°13' E 005°17'611.8
2017-Sep-17 07:00N 60°08' E 005°13'2 4.2
2017-Sep-17 06:29N 60°10' E 005°16'4 7.6
2017-Sep-17 06:00N 60°13' E 005°18'611.6
2017-Sep-17 05:30N 60°08' E 005°13'1 1.5
2017-Sep-17 05:00N 60°07' E 005°12'0 0.0
2017-Sep-17 04:30N 60°07' E 005°12'0 0.0
2017-Sep-17 04:00N 60°07' E 005°12'0 0.0
2017-Sep-17 03:29N 60°07' E 005°12'0 0.0
2017-Sep-17 03:00N 60°07' E 005°12'0 0.0
2017-Sep-17 02:30N 60°07' E 005°12'0 0.0
2017-Sep-17 02:00N 60°07' E 005°12'0 0.0
2017-Sep-17 01:30N 60°07' E 005°12'0 0.0
2017-Sep-17 01:00N 60°07' E 005°12'0 0.0
2017-Sep-17 00:30N 60°07' E 005°12'0 0.0
2017-Sep-17 00:00N 60°07' E 005°12'0 0.0
2017-Sep-16 23:30N 60°07' E 005°12'0 0.0
2017-Sep-16 22:59N 60°07' E 005°12'510.0
2017-Sep-16 22:30N 60°12' E 005°17'2 3.6
2017-Sep-16 22:00N 60°13' E 005°17'0 0.0
2017-Sep-16 21:30N 60°13' E 005°17'3 5.9
2017-Sep-16 21:00N 60°11' E 005°16'3 6.2
2017-Sep-16 20:30N 60°08' E 005°13'611.5
2017-Sep-16 20:00N 60°13' E 005°17'1 2.0
2017-Sep-16 19:30N 60°12' E 005°18'611.5
2017-Sep-16 19:00N 60°07' E 005°12'5 9.8
2017-Sep-16 18:30N 60°12' E 005°17'1 2.0
2017-Sep-16 18:00N 60°11' E 005°17'3 6.6
2017-Sep-16 17:30N 60°08' E 005°13'611.8
2017-Sep-16 17:00N 60°13' E 005°17'510.6
2017-Sep-16 16:30N 60°08' E 005°14'2 3.3
2017-Sep-16 16:00N 60°10' E 005°16'3 5.7
2017-Sep-16 15:30N 60°13' E 005°18'611.9
2017-Sep-16 15:00N 60°07' E 005°12'5 9.9
2017-Sep-16 14:30N 60°12' E 005°17'0 0.7
2017-Sep-16 14:00N 60°11' E 005°17'5 9.3
2017-Sep-16 13:30N 60°07' E 005°12'612.0
2017-Sep-16 13:00N 60°13' E 005°18'3 6.7
2017-Sep-16 12:30N 60°10' E 005°16'1 2.1
2017-Sep-16 12:00N 60°09' E 005°15'510.0
2017-Sep-16 11:30N 60°13' E 005°17'612.4
2017-Sep-16 11:00N 60°08' E 005°13'4 7.7
2017-Sep-16 10:30N 60°11' E 005°17'1 1.1
2017-Sep-16 10:00N 60°11' E 005°17'5 9.4
2017-Sep-16 09:31N 60°07' E 005°12'612.2
2017-Sep-16 09:00N 60°13' E 005°18'4 7.4
2017-Sep-16 08:31N 60°09' E 005°16'1 1.5
2017-Sep-16 08:00N 60°09' E 005°15'5 9.7
2017-Sep-16 07:30N 60°13' E 005°17'611.7
2017-Sep-16 07:00N 60°08' E 005°13'2 4.6
2017-Sep-16 06:30N 60°10' E 005°16'4 7.6
2017-Sep-16 06:00N 60°13' E 005°17'611.5
2017-Sep-16 05:29N 60°08' E 005°13'2 4.9
2017-Sep-16 05:00N 60°10' E 005°16'4 7.3
2017-Sep-16 04:30N 60°13' E 005°18'611.6
2017-Sep-16 04:00N 60°08' E 005°13'1 1.3
2017-Sep-16 03:30N 60°07' E 005°12'0 0.0
2017-Sep-16 03:00N 60°07' E 005°12'0 0.0
2017-Sep-16 02:30N 60°07' E 005°12'0 0.0
2017-Sep-16 02:00N 60°07' E 005°12'0 0.0
2017-Sep-16 01:30N 60°07' E 005°12'0 0.0
2017-Sep-16 01:00N 60°07' E 005°12'0 0.0
2017-Sep-16 00:30N 60°07' E 005°12'0 0.0
2017-Sep-16 00:00N 60°07' E 005°12'0 0.0
2017-Sep-15 23:30N 60°07' E 005°12'0 0.0
2017-Sep-15 22:59N 60°07' E 005°12'510.1
2017-Sep-15 22:30N 60°12' E 005°17'2 3.6
2017-Sep-15 22:00N 60°13' E 005°17'0 0.0
2017-Sep-15 21:30N 60°13' E 005°17'3 6.0
2017-Sep-15 21:00N 60°10' E 005°17'3 6.2
2017-Sep-15 20:30N 60°08' E 005°13'612.1
2017-Sep-15 20:00N 60°13' E 005°17'3 6.8
2017-Sep-15 19:30N 60°10' E 005°16'2 4.0
2017-Sep-15 19:00N 60°08' E 005°14'510.4
2017-Sep-15 18:30N 60°13' E 005°17'611.9
2017-Sep-15 18:00N 60°08' E 005°13'4 7.3
2017-Sep-15 17:30N 60°11' E 005°17'0 0.4
2017-Sep-15 17:00N 60°11' E 005°17'5 9.2
2017-Sep-15 16:30N 60°07' E 005°12'612.0
2017-Sep-15 15:59N 60°13' E 005°18'2 4.7
2017-Sep-15 15:30N 60°11' E 005°17'4 7.9
2017-Sep-15 15:00N 60°07' E 005°12'612.8
2017-Sep-15 14:30N 60°13' E 005°18'3 5.1
2017-Sep-15 14:00N 60°10' E 005°17'4 7.5
2017-Sep-15 13:30N 60°08' E 005°12'612.5
2017-Sep-15 13:00N 60°13' E 005°17'5 9.1
2017-Sep-15 12:30N 60°09' E 005°15'0 0.2
2017-Sep-15 12:00N 60°09' E 005°15'5 9.3
2017-Sep-15 11:30N 60°13' E 005°17'611.9
2017-Sep-15 11:00N 60°08' E 005°13'3 6.1
2017-Sep-15 10:30N 60°11' E 005°16'1 2.7
2017-Sep-15 10:00N 60°12' E 005°17'5 9.9
2017-Sep-15 09:30N 60°07' E 005°12'612.2
2017-Sep-15 09:00N 60°13' E 005°18'3 6.3
2017-Sep-15 08:30N 60°10' E 005°16'  

Dump ship's entire track history